createdAt,value
2023-03-08T00:00:38.551Z,11.56
2023-03-08T00:03:42.876Z,11.24
2023-03-08T00:06:48.210Z,11.46
2023-03-08T00:09:52.172Z,11.16
2023-03-08T00:12:55.784Z,11.51
2023-03-08T00:16:01.569Z,11.55
2023-03-08T00:19:05.510Z,11.54
2023-03-08T00:22:11.604Z,11.33
2023-03-08T00:25:16.720Z,11.02
2023-03-08T00:28:20.494Z,11.40
2023-03-08T00:31:24.463Z,11.46
2023-03-08T00:34:30.521Z,11.46
2023-03-08T00:37:35.906Z,11.52
2023-03-08T00:40:39.639Z,11.53
2023-03-08T00:43:43.677Z,11.56
2023-03-08T00:46:47.472Z,11.42
2023-03-08T00:49:51.324Z,11.43
2023-03-08T00:52:56.958Z,11.60
2023-03-08T00:56:01.586Z,11.43
2023-03-08T00:59:07.710Z,11.38
2023-03-08T01:02:12.515Z,11.17
2023-03-08T01:05:17.049Z,11.15
2023-03-08T01:08:24.056Z,11.42
2023-03-08T01:11:29.133Z,11.19
2023-03-08T01:14:32.739Z,11.47
2023-03-08T01:17:36.788Z,11.34
2023-03-08T01:20:41.434Z,11.12
2023-03-08T01:23:46.639Z,11.25
2023-03-08T01:26:50.514Z,11.10
2023-03-08T01:29:54.920Z,11.09
2023-03-08T01:33:00.821Z,11.07
2023-03-08T01:36:06.421Z,10.97
2023-03-08T01:39:11.757Z,11.08
2023-03-08T01:42:15.443Z,10.75
2023-03-08T01:45:56.567Z,10.70
2023-03-08T01:49:07.845Z,10.70
2023-03-08T01:52:15.927Z,10.34
2023-03-08T01:55:21.431Z,10.73
2023-03-08T01:58:27.091Z,10.68
2023-03-08T02:01:31.091Z,10.48
2023-03-08T02:04:36.664Z,10.48
2023-03-08T02:07:42.943Z,10.63
2023-03-08T02:10:48.545Z,10.61
2023-03-08T02:13:54.431Z,10.68
2023-03-08T02:16:59.334Z,10.56
2023-03-08T02:20:12.382Z,10.35
2023-03-08T02:23:19.490Z,9.30
2023-03-08T02:26:23.304Z,9.62
2023-03-08T02:29:26.871Z,9.79
2023-03-08T02:32:31.456Z,10.01
2023-03-08T02:35:38.860Z,10.04
2023-03-08T02:38:43.917Z,10.04
2023-03-08T02:41:47.576Z,10.16
2023-03-08T02:44:51.172Z,10.10
2023-03-08T02:47:54.816Z,10.14
2023-03-08T02:50:59.022Z,10.18
2023-03-08T02:54:04.206Z,10.20
2023-03-08T02:57:08.011Z,10.04
2023-03-08T03:00:15.039Z,10.04
2023-03-08T03:03:19.160Z,9.62
2023-03-08T03:06:24.142Z,9.81
2023-03-08T03:09:32.851Z,9.71
2023-03-08T03:12:36.688Z,9.75
2023-03-08T03:15:43.391Z,9.82
2023-03-08T03:18:47.454Z,9.96
2023-03-08T03:21:51.094Z,10.10
2023-03-08T03:24:56.536Z,9.71
2023-03-08T03:28:00.488Z,9.57
2023-03-08T03:31:09.291Z,9.17
2023-03-08T03:34:13.368Z,9.33
2023-03-08T03:37:18.589Z,9.31
2023-03-08T03:40:23.818Z,9.58
2023-03-08T03:43:33.322Z,9.55
2023-03-08T03:46:37.408Z,9.86
2023-03-08T03:49:43.845Z,10.05
2023-03-08T03:52:48.831Z,10.09
2023-03-08T03:55:54.521Z,9.90
2023-03-08T03:58:59.140Z,9.89
2023-03-08T04:02:04.633Z,9.65
2023-03-08T04:05:18.412Z,9.91
2023-03-08T04:08:26.630Z,9.82
2023-03-08T04:11:36.340Z,9.87
2023-03-08T04:14:40.963Z,9.83
2023-03-08T04:17:46.839Z,9.92
2023-03-08T04:20:51.358Z,9.70
2023-03-08T04:23:56.298Z,9.70
2023-03-08T04:27:02.154Z,8.83
2023-03-08T04:30:08.197Z,9.10
2023-03-08T04:33:12.856Z,9.02
2023-03-08T04:36:24.672Z,9.24
2023-03-08T04:39:31.163Z,9.17
2023-03-08T04:42:36.706Z,9.25
2023-03-08T04:45:40.844Z,9.43
2023-03-08T04:48:48.907Z,9.33
2023-03-08T04:51:53.914Z,9.07
2023-03-08T04:54:59.350Z,9.24
2023-03-08T04:58:06.558Z,9.35
2023-03-08T05:01:11.979Z,9.21
2023-03-08T05:04:18.836Z,8.89
2023-03-08T05:07:23.762Z,8.90
2023-03-08T05:10:30.222Z,9.19
2023-03-08T05:13:36.848Z,9.32
2023-03-08T05:16:41.822Z,9.40
2023-03-08T05:19:46.646Z,9.51
2023-03-08T05:22:58.855Z,9.26
2023-03-08T05:26:10.499Z,9.45
2023-03-08T05:29:16.138Z,9.49
2023-03-08T05:32:20.870Z,9.36
2023-03-08T05:35:26.768Z,9.11
2023-03-08T05:38:31.154Z,9.01
2023-03-08T05:41:36.365Z,9.09
2023-03-08T05:44:42.596Z,9.49
2023-03-08T05:47:48.945Z,9.66
2023-03-08T05:50:53.082Z,9.86
2023-03-08T05:53:57.276Z,9.82
2023-03-08T05:57:01.291Z,9.91
2023-03-08T06:00:09.719Z,10.24
2023-03-08T06:03:29.927Z,10.44
2023-03-08T06:06:34.974Z,10.60
2023-03-08T06:09:41.397Z,10.88
2023-03-08T06:12:50.269Z,11.14
2023-03-08T06:15:59.442Z,11.50
2023-03-08T06:19:05.288Z,11.80
2023-03-08T06:22:10.967Z,11.79
2023-03-08T06:25:14.860Z,12.33
2023-03-08T06:28:19.740Z,11.88
2023-03-08T06:31:25.320Z,11.97
2023-03-08T06:34:29.411Z,12.68
2023-03-08T06:37:35.398Z,13.03
2023-03-08T06:40:40.409Z,13.42
2023-03-08T06:43:44.549Z,13.52
2023-03-08T06:46:50.419Z,13.87
2023-03-08T06:49:54.345Z,13.84
2023-03-08T06:52:58.221Z,13.92
2023-03-08T06:56:18.503Z,14.13
2023-03-08T06:59:22.500Z,14.33
2023-03-08T07:02:28.229Z,13.57
2023-03-08T07:05:32.015Z,14.01
2023-03-08T07:08:37.195Z,14.47
2023-03-08T07:11:41.150Z,14.73
2023-03-08T07:14:44.842Z,14.98
2023-03-08T07:17:51.815Z,15.26
2023-03-08T07:20:57.206Z,15.40
2023-03-08T07:24:00.961Z,15.59
2023-03-08T07:27:04.967Z,15.03
2023-03-08T07:30:11.139Z,14.98
2023-03-08T07:33:16.447Z,14.74
2023-03-08T07:36:20.355Z,14.85
2023-03-08T07:39:24.595Z,15.32
2023-03-08T07:42:28.479Z,15.58
2023-03-08T07:45:39.929Z,16.06
2023-03-08T07:48:45.358Z,16.10
2023-03-08T07:51:51.652Z,16.10
2023-03-08T07:54:55.465Z,16.21
2023-03-08T07:57:59.302Z,16.56
2023-03-08T08:01:03.574Z,16.78
2023-03-08T08:04:09.913Z,17.17
2023-03-08T08:07:15.317Z,17.11
2023-03-08T08:10:19.544Z,17.55
2023-03-08T08:13:23.694Z,17.87
2023-03-08T08:16:27.652Z,18.11
2023-03-08T08:19:33.228Z,18.30
2023-03-08T08:22:37.908Z,18.53
2023-03-08T08:25:41.854Z,18.65
2023-03-08T08:28:49.266Z,18.59
2023-03-08T08:31:53.552Z,18.36
2023-03-08T08:35:00.351Z,18.99
2023-03-08T08:38:04.346Z,19.20
2023-03-08T08:41:09.615Z,19.40
2023-03-08T08:44:13.348Z,19.42
2023-03-08T08:47:17.229Z,19.56
2023-03-08T08:50:22.538Z,19.15
2023-03-08T08:53:26.706Z,19.34
2023-03-08T08:56:31.190Z,19.53
2023-03-08T08:59:37.263Z,19.82
2023-03-08T09:02:41.226Z,19.91
2023-03-08T09:05:47.105Z,20.01
2023-03-08T09:08:52.267Z,18.83
2023-03-08T09:11:56.232Z,19.42
2023-03-08T09:15:00.769Z,18.39
2023-03-08T09:18:04.683Z,19.53
2023-03-08T09:21:10.044Z,20.28
2023-03-08T09:24:14.285Z,19.94
2023-03-08T09:27:18.138Z,20.52
2023-03-08T09:30:22.126Z,20.05
2023-03-08T09:33:26.449Z,19.97
2023-03-08T09:36:31.880Z,20.47
2023-03-08T09:39:36.086Z,20.35
2023-03-08T09:42:40.324Z,20.08
2023-03-08T09:45:44.291Z,20.67
2023-03-08T09:48:51.748Z,20.59
2023-03-08T09:52:03.455Z,20.17
2023-03-08T09:55:15.922Z,19.97
2023-03-08T09:58:32.324Z,20.66
2023-03-08T10:01:40.730Z,21.09
2023-03-08T10:05:11.460Z,20.55
2023-03-08T10:08:19.749Z,20.99
2023-03-08T10:11:32.982Z,21.04
2023-03-08T10:14:38.985Z,21.11
2023-03-08T10:17:50.664Z,21.10
2023-03-08T10:20:55.201Z,21.46
2023-03-08T10:24:07.001Z,20.71
2023-03-08T10:27:18.574Z,21.31
2023-03-08T10:30:25.333Z,21.70
2023-03-08T10:33:35.129Z,21.91
2023-03-08T10:36:49.727Z,21.43
2023-03-08T10:39:59.983Z,21.62
2023-03-08T10:43:08.101Z,21.92
2023-03-08T10:46:15.530Z,21.89
2023-03-08T10:49:20.937Z,21.83
2023-03-08T10:52:28.483Z,21.95
2023-03-08T10:55:43.546Z,22.24
2023-03-08T10:58:49.443Z,21.57
2023-03-08T11:01:55.786Z,21.87
2023-03-08T11:05:02.383Z,22.36
2023-03-08T11:08:16.582Z,22.69
2023-03-08T11:11:21.937Z,22.83
2023-03-08T11:14:26.608Z,22.63
2023-03-08T11:17:38.004Z,22.36
2023-03-08T11:20:46.850Z,22.52
2023-03-08T11:23:59.690Z,22.42
2023-03-08T11:27:20.120Z,22.17
2023-03-08T11:30:37.043Z,22.14
2023-03-08T11:34:04.578Z,22.78
2023-03-08T11:37:15.326Z,23.12
2023-03-08T11:40:26.309Z,23.08
2023-03-08T11:43:49.454Z,23.26
2023-03-08T11:47:03.557Z,23.32
2023-03-08T11:50:14.128Z,23.37
2023-03-08T11:53:24.904Z,22.26
2023-03-08T11:56:41.953Z,21.96
2023-03-08T11:59:56.957Z,21.76
2023-03-08T12:03:07.826Z,21.72
2023-03-08T12:06:27.936Z,22.13
2023-03-08T12:09:37.919Z,22.71
2023-03-08T12:12:46.428Z,23.02
2023-03-08T12:15:56.438Z,23.02
2023-03-08T12:19:07.179Z,23.33
2023-03-08T12:22:23.495Z,23.26
2023-03-08T12:25:31.077Z,23.11
2023-03-08T12:28:38.831Z,23.21
2023-03-08T12:31:47.230Z,23.41
2023-03-08T12:35:04.259Z,22.66
2023-03-08T12:38:23.993Z,22.35
2023-03-08T12:41:30.254Z,21.95
2023-03-08T12:44:34.194Z,22.26
2023-03-08T12:47:40.151Z,22.26
2023-03-08T12:50:47.831Z,22.47
2023-03-08T12:54:01.223Z,22.19
2023-03-08T12:57:18.178Z,22.18
2023-03-08T13:00:31.173Z,21.86
2023-03-08T13:03:41.556Z,21.81
2023-03-08T13:07:18.759Z,21.47
2023-03-08T13:10:27.690Z,21.62
2023-03-08T13:13:40.955Z,22.33
2023-03-08T13:16:44.928Z,22.43
2023-03-08T13:19:52.485Z,22.38
2023-03-08T13:23:04.126Z,22.28
2023-03-08T13:26:47.711Z,22.29
2023-03-08T13:29:55.272Z,22.32
2023-03-08T13:33:00.067Z,22.35
2023-03-08T13:36:07.457Z,22.77
2023-03-08T13:39:20.945Z,22.89
2023-03-08T13:42:26.205Z,23.01
2023-03-08T13:45:30.936Z,22.82
2023-03-08T13:48:37.244Z,22.57
2023-03-08T13:51:45.904Z,22.75
2023-03-08T13:54:53.420Z,22.76
2023-03-08T13:57:57.670Z,22.75
2023-03-08T14:01:03.739Z,22.14
2023-03-08T14:04:13.414Z,21.94
2023-03-08T14:07:24.121Z,21.81
2023-03-08T14:10:33.946Z,22.06
2023-03-08T14:13:40.129Z,22.08
2023-03-08T14:16:44.579Z,21.97
2023-03-08T14:19:55.569Z,21.56
2023-03-08T14:23:01.320Z,21.76
2023-03-08T14:26:05.887Z,21.74
2023-03-08T14:29:20.344Z,21.68
2023-03-08T14:32:32.367Z,21.09
2023-03-08T14:35:38.912Z,20.80
2023-03-08T14:38:44.252Z,20.50
2023-03-08T14:41:48.328Z,20.29
2023-03-08T14:44:54.136Z,20.19
2023-03-08T14:47:59.706Z,20.14
2023-03-08T14:51:05.268Z,19.95
2023-03-08T14:54:23.967Z,19.92
2023-03-08T14:57:30.722Z,19.70
2023-03-08T15:00:34.557Z,19.53
2023-03-08T15:03:38.344Z,19.60
2023-03-08T15:06:42.596Z,19.73
2023-03-08T15:09:48.721Z,19.79
2023-03-08T15:12:52.805Z,19.76
2023-03-08T15:15:56.736Z,19.79
2023-03-08T15:19:00.493Z,19.96
2023-03-08T15:22:07.043Z,19.86
2023-03-08T15:25:18.336Z,19.48
2023-03-08T15:28:23.836Z,19.68
2023-03-08T15:31:27.715Z,19.74
2023-03-08T15:34:31.475Z,19.74
2023-03-08T15:37:35.171Z,19.57
2023-03-08T15:40:40.530Z,19.51
2023-03-08T15:43:44.630Z,19.50
2023-03-08T15:46:49.923Z,19.26
2023-03-08T15:49:55.385Z,19.28
2023-03-08T15:52:59.640Z,19.13
2023-03-08T15:56:05.037Z,19.15
2023-03-08T15:59:09.169Z,19.05
2023-03-08T16:02:16.396Z,19.04
2023-03-08T16:05:23.052Z,19.08
2023-03-08T16:08:29.144Z,18.83
2023-03-08T16:11:34.297Z,18.79
2023-03-08T16:14:38.489Z,18.69
2023-03-08T16:17:42.288Z,18.64
2023-03-08T16:20:46.448Z,18.72
2023-03-08T16:23:50.411Z,18.76
2023-03-08T16:26:56.182Z,18.77
2023-03-08T16:30:00.262Z,18.73
2023-03-08T16:33:05.989Z,18.70
2023-03-08T16:36:10.876Z,18.65
2023-03-08T16:39:14.651Z,18.62
2023-03-08T16:42:20.879Z,18.46
2023-03-08T16:45:24.723Z,18.54
2023-03-08T16:48:29.881Z,18.55
2023-03-08T16:51:33.678Z,18.34
2023-03-08T16:54:38.055Z,18.16
2023-03-08T16:57:43.294Z,18.05
2023-03-08T17:00:47.298Z,18.08
2023-03-08T17:03:52.025Z,17.93
2023-03-08T17:06:55.861Z,18.01
2023-03-08T17:10:02.863Z,18.09
2023-03-08T17:13:08.876Z,18.15
2023-03-08T17:16:13.999Z,18.08
2023-03-08T17:19:17.922Z,18.01
2023-03-08T17:22:21.745Z,18.01
2023-03-08T17:25:25.546Z,17.99
2023-03-08T17:28:30.934Z,17.82
2023-03-08T17:31:34.924Z,17.89
2023-03-08T17:34:38.817Z,17.83
2023-03-08T17:37:42.971Z,17.73
2023-03-08T17:40:47.805Z,17.65
2023-03-08T17:43:53.131Z,17.60
2023-03-08T17:46:57.036Z,17.50
2023-03-08T17:50:01.051Z,17.37
2023-03-08T17:53:05.263Z,17.36
2023-03-08T17:56:10.643Z,17.29
2023-03-08T17:59:17.569Z,17.28
2023-03-08T18:02:22.397Z,17.26
2023-03-08T18:05:26.467Z,17.11
2023-03-08T18:08:30.449Z,17.14
2023-03-08T18:11:38.091Z,16.91
2023-03-08T18:14:43.730Z,17.08
2023-03-08T18:17:48.077Z,17.02
2023-03-08T18:20:53.989Z,17.12
2023-03-08T18:23:59.739Z,17.10
2023-03-08T18:27:05.643Z,17.05
2023-03-08T18:30:13.938Z,17.05
2023-03-08T18:33:18.083Z,17.04
2023-03-08T18:36:22.597Z,17.02
2023-03-08T18:39:27.426Z,16.98
2023-03-08T18:42:32.534Z,16.93
2023-03-08T18:45:39.091Z,16.84
2023-03-08T18:48:43.302Z,16.77
2023-03-08T18:51:47.379Z,16.77
2023-03-08T18:54:51.365Z,16.63
2023-03-08T18:57:55.204Z,16.18
2023-03-08T19:01:03.044Z,16.10
2023-03-08T19:04:08.279Z,16.05
2023-03-08T19:07:13.188Z,16.09
2023-03-08T19:10:17.080Z,16.19
2023-03-08T19:13:21.002Z,16.29
2023-03-08T19:16:27.833Z,15.96
2023-03-08T19:19:32.136Z,16.17
2023-03-08T19:22:35.902Z,16.05
2023-03-08T19:26:00.512Z,15.93
2023-03-08T19:29:07.059Z,15.79
2023-03-08T19:32:14.341Z,15.76
2023-03-08T19:35:18.331Z,15.78
2023-03-08T19:38:22.074Z,15.91
2023-03-08T19:41:26.369Z,15.86
2023-03-08T19:44:31.133Z,15.73
2023-03-08T19:47:37.133Z,15.19
2023-03-08T19:50:46.173Z,15.39
2023-03-08T19:53:50.029Z,15.41
2023-03-08T19:56:54.806Z,15.36
2023-03-08T20:00:00.754Z,15.46
2023-03-08T20:03:06.071Z,15.27
2023-03-08T20:06:11.062Z,15.45
2023-03-08T20:09:18.507Z,15.25
2023-03-08T20:12:22.273Z,15.29
2023-03-08T20:15:26.183Z,14.88
2023-03-08T20:18:31.543Z,14.99
2023-03-08T20:21:35.362Z,14.78
2023-03-08T20:24:39.139Z,14.75
2023-03-08T20:27:44.165Z,14.66
2023-03-08T20:30:48.178Z,14.58
2023-03-08T20:33:53.677Z,14.14
2023-03-08T20:36:57.650Z,14.19
2023-03-08T20:40:04.540Z,14.27
2023-03-08T20:43:11.229Z,14.25
2023-03-08T20:46:17.216Z,14.31
2023-03-08T20:49:22.539Z,14.19
2023-03-08T20:52:26.284Z,14.13
2023-03-08T20:55:30.114Z,13.93
2023-03-08T20:58:34.148Z,13.86
2023-03-08T21:01:38.027Z,14.00
2023-03-08T21:04:43.259Z,13.91
2023-03-08T21:07:47.077Z,14.03
2023-03-08T21:10:51.061Z,13.93
2023-03-08T21:13:55.704Z,13.87
2023-03-08T21:16:59.585Z,13.91
2023-03-08T21:20:05.453Z,13.86
2023-03-08T21:23:09.186Z,13.90
2023-03-08T21:26:14.208Z,14.11
2023-03-08T21:29:20.576Z,14.11
2023-03-08T21:32:26.331Z,14.16
2023-03-08T21:35:32.858Z,14.15
2023-03-08T21:38:36.813Z,13.88
2023-03-08T21:41:42.828Z,13.75
2023-03-08T21:44:46.671Z,13.90
2023-03-08T21:47:50.355Z,13.61
2023-03-08T21:50:55.641Z,13.83
2023-03-08T21:53:59.842Z,13.95
2023-03-08T21:57:03.691Z,14.01
2023-03-08T22:00:08.885Z,14.02
2023-03-08T22:03:15.704Z,13.74
2023-03-08T22:06:21.620Z,13.63
2023-03-08T22:09:27.231Z,13.62
2023-03-08T22:12:31.195Z,14.02
2023-03-08T22:15:35.037Z,14.16
2023-03-08T22:18:38.891Z,14.23
2023-03-08T22:21:44.179Z,14.28
2023-03-08T22:24:48.148Z,14.14
2023-03-08T22:27:51.961Z,14.24
2023-03-08T22:30:55.966Z,13.78
2023-03-08T22:34:01.584Z,14.00
2023-03-08T22:37:07.236Z,13.56
2023-03-08T22:40:13.370Z,13.40
2023-03-08T22:43:17.426Z,13.49
2023-03-08T22:46:24.071Z,13.81
2023-03-08T22:49:28.025Z,13.51
2023-03-08T22:52:33.466Z,13.87
2023-03-08T22:55:37.317Z,14.03
2023-03-08T22:58:41.326Z,14.13
2023-03-08T23:01:45.331Z,14.12
2023-03-08T23:04:49.319Z,13.55
2023-03-08T23:07:54.823Z,14.04
2023-03-08T23:10:59.060Z,14.04
2023-03-08T23:14:03.498Z,14.09
2023-03-08T23:17:07.559Z,14.15
2023-03-08T23:20:13.776Z,14.10
2023-03-08T23:23:19.261Z,14.12
2023-03-08T23:26:27.120Z,14.00
2023-03-08T23:29:31.552Z,13.89
2023-03-08T23:32:35.585Z,13.89
2023-03-08T23:35:39.617Z,13.93
2023-03-08T23:38:45.118Z,13.85
2023-03-08T23:41:49.087Z,13.27
2023-03-08T23:44:53.478Z,13.27
2023-03-08T23:47:57.264Z,13.36
2023-03-08T23:51:01.110Z,13.35
2023-03-08T23:54:06.448Z,13.32
2023-03-08T23:57:10.446Z,13.23
